sensor_id;sensor_type;location;lat;lon;timestamp;pressure;altitude;pressure_sealevel;temperature;humidity
36600;BME280;35385;55.668;37.508;2023-02-04T00:00:42;98752.38;;;0.72;100.00
36600;BME280;35385;55.668;37.508;2023-02-04T00:01:47;98757.63;;;0.72;100.00
36600;BME280;35385;55.668;37.508;2023-02-04T00:02:48;98751.03;;;0.65;100.00
36600;BME280;35385;55.668;37.508;2023-02-04T00:03:49;98704.28;;;0.24;100.00
36600;BME280;35385;55.668;37.508;2023-02-04T00:04:50;98757.47;;;0.44;100.00
36600;BME280;35385;55.668;37.508;2023-02-04T00:05:50;98759.53;;;0.39;100.00
36600;BME280;35385;55.668;37.508;2023-02-04T00:06:51;98753.09;;;0.28;100.00
36600;BME280;35385;55.668;37.508;2023-02-04T00:07:51;98755.88;;;0.25;100.00
36600;BME280;35385;55.668;37.508;2023-02-04T00:08:52;98763.22;;;0.19;100.00
36600;BME280;35385;55.668;37.508;2023-02-04T00:09:52;98762.22;;;0.21;100.00
36600;BME280;35385;55.668;37.508;2023-02-04T00:10:53;98748.66;;;0.29;100.00
36600;BME280;35385;55.668;37.508;2023-02-04T00:11:53;98752.31;;;0.26;100.00
36600;BME280;35385;55.668;37.508;2023-02-04T00:12:54;98750.53;;;0.27;100.00
36600;BME280;35385;55.668;37.508;2023-02-04T00:13:55;98758.75;;;0.37;100.00
36600;BME280;35385;55.668;37.508;2023-02-04T00:14:55;98765.53;;;0.41;100.00
36600;BME280;35385;55.668;37.508;2023-02-04T00:15:56;98762.56;;;0.47;100.00
36600;BME280;35385;55.668;37.508;2023-02-04T00:16:56;98752.41;;;0.41;100.00
36600;BME280;35385;55.668;37.508;2023-02-04T00:17:59;98725.28;;;0.24;100.00
36600;BME280;35385;55.668;37.508;2023-02-04T00:18:59;98754.34;;;0.37;100.00
36600;BME280;35385;55.668;37.508;2023-02-04T00:20:00;98750.34;;;0.46;100.00
36600;BME280;35385;55.668;37.508;2023-02-04T00:21:00;98746.63;;;0.34;100.00
36600;BME280;35385;55.668;37.508;2023-02-04T00:22:01;98748.94;;;0.24;100.00
36600;BME280;35385;55.668;37.508;2023-02-04T00:23:03;98750.78;;;0.22;100.00
36600;BME280;35385;55.668;37.508;2023-02-04T00:24:03;98758.16;;;0.31;100.00
36600;BME280;35385;55.668;37.508;2023-02-04T00:25:04;98757.50;;;0.28;100.00
36600;BME280;35385;55.668;37.508;2023-02-04T00:26:05;98730.28;;;0.13;100.00
36600;BME280;35385;55.668;37.508;2023-02-04T00:27:06;98757.31;;;0.31;100.00
36600;BME280;35385;55.668;37.508;2023-02-04T00:28:06;98760.69;;;0.33;100.00
36600;BME280;35385;55.668;37.508;2023-02-04T00:29:07;98765.09;;;0.32;100.00
36600;BME280;35385;55.668;37.508;2023-02-04T00:30:08;98772.06;;;0.33;100.00
36600;BME280;35385;55.668;37.508;2023-02-04T00:31:09;98759.84;;;0.32;100.00
36600;BME280;35385;55.668;37.508;2023-02-04T00:32:09;98760.38;;;0.23;100.00
36600;BME280;35385;55.668;37.508;2023-02-04T00:33:10;98756.66;;;0.27;100.00
36600;BME280;35385;55.668;37.508;2023-02-04T00:34:10;98756.53;;;0.29;100.00
36600;BME280;35385;55.668;37.508;2023-02-04T00:35:12;98731.91;;;0.00;100.00
36600;BME280;35385;55.668;37.508;2023-02-04T00:36:12;98777.81;;;0.24;100.00
36600;BME280;35385;55.668;37.508;2023-02-04T00:37:13;98779.53;;;0.25;100.00
36600;BME280;35385;55.668;37.508;2023-02-04T00:38:13;98758.66;;;0.22;100.00
36600;BME280;35385;55.668;37.508;2023-02-04T00:39:14;98776.13;;;0.39;100.00
36600;BME280;35385;55.668;37.508;2023-02-04T00:40:15;98767.81;;;0.47;100.00
36600;BME280;35385;55.668;37.508;2023-02-04T00:41:15;98780.38;;;0.42;100.00
36600;BME280;35385;55.668;37.508;2023-02-04T00:42:16;98757.91;;;0.20;100.00
36600;BME280;35385;55.668;37.508;2023-02-04T00:43:16;98768.75;;;0.30;100.00
36600;BME280;35385;55.668;37.508;2023-02-04T00:44:17;98781.22;;;0.26;100.00
36600;BME280;35385;55.668;37.508;2023-02-04T00:45:17;98774.00;;;0.14;100.00
36600;BME280;35385;55.668;37.508;2023-02-04T00:46:18;98780.19;;;0.13;100.00
36600;BME280;35385;55.668;37.508;2023-02-04T00:47:18;98773.56;;;0.06;100.00
36600;BME280;35385;55.668;37.508;2023-02-04T00:48:19;98775.09;;;0.10;100.00
36600;BME280;35385;55.668;37.508;2023-02-04T00:49:20;98777.81;;;0.09;100.00
36600;BME280;35385;55.668;37.508;2023-02-04T00:50:20;98780.50;;;0.07;100.00
36600;BME280;35385;55.668;37.508;2023-02-04T00:51:21;98785.16;;;0.02;100.00
36600;BME280;35385;55.668;37.508;2023-02-04T00:52:21;98784.31;;;0.02;100.00
36600;BME280;35385;55.668;37.508;2023-02-04T00:53:22;98786.53;;;0.09;100.00
36600;BME280;35385;55.668;37.508;2023-02-04T00:54:25;98786.44;;;0.11;100.00
36600;BME280;35385;55.668;37.508;2023-02-04T00:55:26;98787.78;;;0.02;100.00
36600;BME280;35385;55.668;37.508;2023-02-04T00:56:26;98789.94;;;0.11;100.00
36600;BME280;35385;55.668;37.508;2023-02-04T00:57:27;98778.97;;;0.03;100.00
36600;BME280;35385;55.668;37.508;2023-02-04T00:58:27;98742.78;;;-0.23;100.00
36600;BME280;35385;55.668;37.508;2023-02-04T00:59:28;98788.63;;;0.03;100.00
36600;BME280;35385;55.668;37.508;2023-02-04T01:00:28;98807.78;;;0.05;100.00
36600;BME280;35385;55.668;37.508;2023-02-04T01:01:29;98781.34;;;-0.08;100.00
36600;BME280;35385;55.668;37.508;2023-02-04T01:02:30;98747.50;;;-0.30;100.00
36600;BME280;35385;55.668;37.508;2023-02-04T01:03:31;98746.03;;;-0.36;100.00
36600;BME280;35385;55.668;37.508;2023-02-04T01:04:31;98789.91;;;-0.05;100.00
36600;BME280;35385;55.668;37.508;2023-02-04T01:05:32;98792.38;;;-0.02;100.00
36600;BME280;35385;55.668;37.508;2023-02-04T01:06:33;98799.97;;;0.03;100.00
36600;BME280;35385;55.668;37.508;2023-02-04T01:07:34;98805.22;;;0.03;100.00
36600;BME280;35385;55.668;37.508;2023-02-04T01:08:34;98796.34;;;0.06;100.00
36600;BME280;35385;55.668;37.508;2023-02-04T01:09:35;98789.75;;;-0.02;100.00
36600;BME280;35385;55.668;37.508;2023-02-04T01:10:35;98800.44;;;0.11;100.00
36600;BME280;35385;55.668;37.508;2023-02-04T01:11:36;98783.41;;;0.18;100.00
36600;BME280;35385;55.668;37.508;2023-02-04T01:12:37;98776.81;;;0.11;100.00
36600;BME280;35385;55.668;37.508;2023-02-04T01:13:38;98799.88;;;0.38;100.00
36600;BME280;35385;55.668;37.508;2023-02-04T01:14:38;98752.41;;;0.09;100.00
36600;BME280;35385;55.668;37.508;2023-02-04T01:15:39;98804.00;;;0.26;100.00
36600;BME280;35385;55.668;37.508;2023-02-04T01:16:41;98802.72;;;0.17;100.00
36600;BME280;35385;55.668;37.508;2023-02-04T01:17:44;98788.38;;;0.07;100.00
36600;BME280;35385;55.668;37.508;2023-02-04T01:18:45;98747.88;;;-0.20;100.00
36600;BME280;35385;55.668;37.508;2023-02-04T01:19:46;98802.06;;;0.14;100.00
36600;BME280;35385;55.668;37.508;2023-02-04T01:20:46;98757.47;;;-0.04;100.00
36600;BME280;35385;55.668;37.508;2023-02-04T01:21:47;98800.38;;;0.28;100.00
36600;BME280;35385;55.668;37.508;2023-02-04T01:22:47;98784.63;;;0.28;100.00
36600;BME280;35385;55.668;37.508;2023-02-04T01:23:48;98768.16;;;0.09;100.00
36600;BME280;35385;55.668;37.508;2023-02-04T01:24:49;98800.19;;;0.31;100.00
36600;BME280;35385;55.668;37.508;2023-02-04T01:25:50;98786.88;;;0.19;100.00
36600;BME280;35385;55.668;37.508;2023-02-04T01:26:50;98805.72;;;0.27;100.00
36600;BME280;35385;55.668;37.508;2023-02-04T01:27:53;98744.41;;;-0.05;100.00
36600;BME280;35385;55.668;37.508;2023-02-04T01:28:54;98797.47;;;0.17;100.00
36600;BME280;35385;55.668;37.508;2023-02-04T01:29:54;98799.50;;;0.12;100.00
36600;BME280;35385;55.668;37.508;2023-02-04T01:30:55;98749.09;;;-0.27;100.00
36600;BME280;35385;55.668;37.508;2023-02-04T01:31:55;98800.75;;;0.05;100.00
36600;BME280;35385;55.668;37.508;2023-02-04T01:32:56;98803.06;;;0.11;100.00
36600;BME280;35385;55.668;37.508;2023-02-04T01:33:56;98806.06;;;0.04;100.00
36600;BME280;35385;55.668;37.508;2023-02-04T01:34:57;98806.47;;;0.13;100.00
36600;BME280;35385;55.668;37.508;2023-02-04T01:36:00;98810.59;;;0.17;100.00
36600;BME280;35385;55.668;37.508;2023-02-04T01:37:00;98809.81;;;0.15;100.00
36600;BME280;35385;55.668;37.508;2023-02-04T01:38:03;98809.50;;;0.21;100.00
36600;BME280;35385;55.668;37.508;2023-02-04T01:39:04;98818.38;;;0.19;100.00
36600;BME280;35385;55.668;37.508;2023-02-04T01:40:04;98811.19;;;0.22;100.00
36600;BME280;35385;55.668;37.508;2023-02-04T01:41:05;98796.63;;;0.32;100.00
36600;BME280;35385;55.668;37.508;2023-02-04T01:42:06;98813.06;;;0.36;100.00
36600;BME280;35385;55.668;37.508;2023-02-04T01:43:07;98820.97;;;0.36;100.00
36600;BME280;35385;55.668;37.508;2023-02-04T01:44:08;98791.28;;;0.18;100.00
36600;BME280;35385;55.668;37.508;2023-02-04T01:45:09;98804.16;;;0.23;100.00
36600;BME280;35385;55.668;37.508;2023-02-04T01:46:10;98812.22;;;0.20;100.00
36600;BME280;35385;55.668;37.508;2023-02-04T01:47:11;98809.25;;;0.10;100.00
36600;BME280;35385;55.668;37.508;2023-02-04T01:48:11;98773.44;;;-0.08;100.00
36600;BME280;35385;55.668;37.508;2023-02-04T01:49:13;98810.59;;;0.17;100.00
36600;BME280;35385;55.668;37.508;2023-02-04T01:50:15;98824.09;;;0.27;100.00
36600;BME280;35385;55.668;37.508;2023-02-04T01:51:21;98822.56;;;0.39;100.00
36600;BME280;35385;55.668;37.508;2023-02-04T01:52:27;98832.56;;;0.48;100.00
36600;BME280;35385;55.668;37.508;2023-02-04T01:53:31;98824.84;;;0.60;100.00
36600;BME280;35385;55.668;37.508;2023-02-04T01:54:32;98824.53;;;0.66;100.00
36600;BME280;35385;55.668;37.508;2023-02-04T01:55:33;98833.03;;;0.56;100.00
36600;BME280;35385;55.668;37.508;2023-02-04T01:56:34;98839.28;;;0.53;100.00
36600;BME280;35385;55.668;37.508;2023-02-04T01:57:35;98819.19;;;0.37;100.00
36600;BME280;35385;55.668;37.508;2023-02-04T01:58:39;98837.34;;;0.57;100.00
36600;BME280;35385;55.668;37.508;2023-02-04T01:59:42;98838.78;;;0.62;100.00
36600;BME280;35385;55.668;37.508;2023-02-04T02:00:46;98819.72;;;0.43;100.00
36600;BME280;35385;55.668;37.508;2023-02-04T02:01:51;98845.97;;;0.59;100.00
36600;BME280;35385;55.668;37.508;2023-02-04T02:02:54;98837.66;;;0.51;100.00
36600;BME280;35385;55.668;37.508;2023-02-04T02:03:57;98821.38;;;0.44;100.00
36600;BME280;35385;55.668;37.508;2023-02-04T02:04:57;98834.78;;;0.40;100.00
36600;BME280;35385;55.668;37.508;2023-02-04T02:05:58;98834.78;;;0.40;100.00
36600;BME280;35385;55.668;37.508;2023-02-04T02:07:01;98828.75;;;0.38;100.00
36600;BME280;35385;55.668;37.508;2023-02-04T02:08:04;98836.28;;;0.44;100.00
36600;BME280;35385;55.668;37.508;2023-02-04T02:09:05;98791.72;;;0.26;100.00
36600;BME280;35385;55.668;37.508;2023-02-04T02:10:08;98830.47;;;0.54;100.00
36600;BME280;35385;55.668;37.508;2023-02-04T02:11:09;98844.69;;;0.50;100.00
36600;BME280;35385;55.668;37.508;2023-02-04T02:12:09;98812.56;;;0.14;100.00
36600;BME280;35385;55.668;37.508;2023-02-04T02:13:14;98754.38;;;-0.12;100.00
36600;BME280;35385;55.668;37.508;2023-02-04T02:14:15;98807.69;;;0.06;100.00
36600;BME280;35385;55.668;37.508;2023-02-04T02:15:16;98839.84;;;0.27;100.00
36600;BME280;35385;55.668;37.508;2023-02-04T02:16:17;98796.34;;;0.06;100.00
36600;BME280;35385;55.668;37.508;2023-02-04T02:17:17;98836.28;;;0.44;100.00
36600;BME280;35385;55.668;37.508;2023-02-04T02:18:18;98836.56;;;0.55;100.00
36600;BME280;35385;55.668;37.508;2023-02-04T02:19:25;98849.19;;;0.64;100.00
36600;BME280;35385;55.668;37.508;2023-02-04T02:20:27;98837.34;;;0.57;100.00
36600;BME280;35385;55.668;37.508;2023-02-04T02:21:30;98849.88;;;0.67;100.00
36600;BME280;35385;55.668;37.508;2023-02-04T02:22:36;98838.53;;;0.67;100.00
36600;BME280;35385;55.668;37.508;2023-02-04T02:23:48;98844.28;;;0.74;100.00
36600;BME280;35385;55.668;37.508;2023-02-04T02:24:49;98846.16;;;0.72;100.00
36600;BME280;35385;55.668;37.508;2023-02-04T02:25:52;98794.25;;;0.44;100.00
36600;BME280;35385;55.668;37.508;2023-02-04T02:26:54;98786.56;;;0.41;100.00
36600;BME280;35385;55.668;37.508;2023-02-04T02:27:56;98826.22;;;0.67;100.00
36600;BME280;35385;55.668;37.508;2023-02-04T02:28:58;98845.13;;;0.74;100.00
36600;BME280;35385;55.668;37.508;2023-02-04T02:29:58;98841.41;;;0.78;100.00
36600;BME280;35385;55.668;37.508;2023-02-04T02:30:59;98846.41;;;0.67;100.00
36600;BME280;35385;55.668;37.508;2023-02-04T02:32:00;98850.50;;;0.57;100.00
36600;BME280;35385;55.668;37.508;2023-02-04T02:33:01;98847.66;;;0.60;100.00
36600;BME280;35385;55.668;37.508;2023-02-04T02:34:01;98807.66;;;0.39;100.00
36600;BME280;35385;55.668;37.508;2023-02-04T02:35:02;98805.81;;;0.41;100.00
36600;BME280;35385;55.668;37.508;2023-02-04T02:36:04;98842.78;;;0.69;100.00
36600;BME280;35385;55.668;37.508;2023-02-04T02:37:07;98852.69;;;0.80;100.00
36600;BME280;35385;55.668;37.508;2023-02-04T02:38:11;98845.28;;;0.87;100.00
36600;BME280;35385;55.668;37.508;2023-02-04T02:39:11;98839.00;;;0.89;100.00
36600;BME280;35385;55.668;37.508;2023-02-04T02:40:13;98801.03;;;0.63;100.00
36600;BME280;35385;55.668;37.508;2023-02-04T02:41:13;98811.78;;;0.75;100.00
36600;BME280;35385;55.668;37.508;2023-02-04T02:42:18;98854.94;;;1.02;100.00
36600;BME280;35385;55.668;37.508;2023-02-04T02:43:22;98854.28;;;0.98;100.00
36600;BME280;35385;55.668;37.508;2023-02-04T02:44:25;98805.97;;;0.69;100.00
36600;BME280;35385;55.668;37.508;2023-02-04T02:45:29;98853.44;;;0.98;100.00
36600;BME280;35385;55.668;37.508;2023-02-04T02:46:30;98846.47;;;0.97;100.00
36600;BME280;35385;55.668;37.508;2023-02-04T02:47:31;98861.06;;;1.02;100.00
36600;BME280;35385;55.668;37.508;2023-02-04T02:48:32;98856.00;;;0.99;100.00
36600;BME280;35385;55.668;37.508;2023-02-04T02:49:32;98868.38;;;0.97;100.00
36600;BME280;35385;55.668;37.508;2023-02-04T02:50:36;98816.47;;;0.69;100.00
36600;BME280;35385;55.668;37.508;2023-02-04T02:51:37;98857.84;;;0.97;100.00
36600;BME280;35385;55.668;37.508;2023-02-04T02:52:37;98865.38;;;1.03;100.00
36600;BME280;35385;55.668;37.508;2023-02-04T02:53:38;98850.13;;;0.94;100.00
36600;BME280;35385;55.668;37.508;2023-02-04T02:54:39;98854.78;;;0.89;100.00
36600;BME280;35385;55.668;37.508;2023-02-04T02:55:40;98864.53;;;0.87;100.00
36600;BME280;35385;55.668;37.508;2023-02-04T02:56:41;98876.34;;;0.80;100.00
36600;BME280;35385;55.668;37.508;2023-02-04T02:57:43;98870.41;;;0.77;100.00
36600;BME280;35385;55.668;37.508;2023-02-04T02:58:45;98868.22;;;0.69;100.00
36600;BME280;35385;55.668;37.508;2023-02-04T02:59:46;98880.06;;;0.76;100.00
36600;BME280;35385;55.668;37.508;2023-02-04T03:00:47;98874.72;;;0.78;100.00
36600;BME280;35385;55.668;37.508;2023-02-04T03:01:52;98878.72;;;0.85;100.00
36600;BME280;35385;55.668;37.508;2023-02-04T03:02:55;98879.81;;;0.96;100.00
36600;BME280;35385;55.668;37.508;2023-02-04T03:03:56;98874.66;;;0.95;100.00
36600;BME280;35385;55.668;37.508;2023-02-04T03:04:57;98866.16;;;0.90;100.00
36600;BME280;35385;55.668;37.508;2023-02-04T03:06:15;98882.44;;;1.12;100.00
36600;BME280;35385;55.668;37.508;2023-02-04T03:07:17;98877.50;;;1.06;100.00
36600;BME280;35385;55.668;37.508;2023-02-04T03:08:19;98832.41;;;0.82;100.00
36600;BME280;35385;55.668;37.508;2023-02-04T03:09:19;98885.72;;;1.16;100.00
36600;BME280;35385;55.668;37.508;2023-02-04T03:10:20;98888.41;;;1.00;100.00
36600;BME280;35385;55.668;37.508;2023-02-04T03:11:21;98885.00;;;0.82;100.00
36600;BME280;35385;55.668;37.508;2023-02-04T03:12:22;98885.75;;;0.84;100.00
36600;BME280;35385;55.668;37.508;2023-02-04T03:13:23;98872.44;;;0.87;100.00
36600;BME280;35385;55.668;37.508;2023-02-04T03:14:24;98881.94;;;1.05;100.00
36600;BME280;35385;55.668;37.508;2023-02-04T03:15:26;98791.28;;;0.65;100.00
36600;BME280;35385;55.668;37.508;2023-02-04T03:16:28;98879.97;;;1.25;100.00
36600;BME280;35385;55.668;37.508;2023-02-04T03:17:30;98880.56;;;1.30;100.00
36600;BME280;35385;55.668;37.508;2023-02-04T03:18:31;98879.03;;;1.26;100.00
36600;BME280;35385;55.668;37.508;2023-02-04T03:19:32;98887.84;;;1.25;100.00
36600;BME280;35385;55.668;37.508;2023-02-04T03:20:32;98875.66;;;0.92;100.00
36600;BME280;35385;55.668;37.508;2023-02-04T03:21:34;98888.47;;;0.83;100.00
36600;BME280;35385;55.668;37.508;2023-02-04T03:22:35;98887.19;;;0.90;100.00
36600;BME280;35385;55.668;37.508;2023-02-04T03:23:36;98887.47;;;1.01;100.00
36600;BME280;35385;55.668;37.508;2023-02-04T03:24:36;98874.19;;;1.02;100.00
36600;BME280;35385;55.668;37.508;2023-02-04T03:25:37;98841.06;;;0.84;100.00
36600;BME280;35385;55.668;37.508;2023-02-04T03:26:38;98840.72;;;0.90;100.00
36600;BME280;35385;55.668;37.508;2023-02-04T03:27:38;98889.19;;;1.16;100.00
36600;BME280;35385;55.668;37.508;2023-02-04T03:28:40;98880.91;;;0.92;100.00
36600;BME280;35385;55.668;37.508;2023-02-04T03:29:44;98852.59;;;0.66;100.00
36600;BME280;35385;55.668;37.508;2023-02-04T03:30:45;98880.06;;;0.92;100.00
36600;BME280;35385;55.668;37.508;2023-02-04T03:31:52;98894.31;;;1.03;100.00
36600;BME280;35385;55.668;37.508;2023-02-04T03:32:54;98894.56;;;1.15;100.00
36600;BME280;35385;55.668;37.508;2023-02-04T03:33:55;98888.34;;;1.16;100.00
36600;BME280;35385;55.668;37.508;2023-02-04T03:34:55;98894.28;;;1.19;100.00
36600;BME280;35385;55.668;37.508;2023-02-04T03:35:57;98893.28;;;1.22;100.00
36600;BME280;35385;55.668;37.508;2023-02-04T03:36:58;98891.75;;;1.18;100.00
36600;BME280;35385;55.668;37.508;2023-02-04T03:37:58;98892.13;;;1.12;100.00
36600;BME280;35385;55.668;37.508;2023-02-04T03:38:59;98905.03;;;1.00;100.00
36600;BME280;35385;55.668;37.508;2023-02-04T03:40:01;98896.84;;;0.89;100.00
36600;BME280;35385;55.668;37.508;2023-02-04T03:41:01;98901.78;;;0.80;100.00
36600;BME280;35385;55.668;37.508;2023-02-04T03:42:02;98902.63;;;0.80;100.00
36600;BME280;35385;55.668;37.508;2023-02-04T03:43:03;98900.41;;;0.88;100.00
36600;BME280;35385;55.668;37.508;2023-02-04T03:44:06;98898.56;;;0.90;100.00
36600;BME280;35385;55.668;37.508;2023-02-04T03:45:07;98902.72;;;1.10;100.00
36600;BME280;35385;55.668;37.508;2023-02-04T03:46:07;98902.47;;;1.15;100.00
36600;BME280;35385;55.668;37.508;2023-02-04T03:47:08;98917.22;;;1.17;100.00
36600;BME280;35385;55.668;37.508;2023-02-04T03:48:09;98907.38;;;1.21;100.00
36600;BME280;35385;55.668;37.508;2023-02-04T03:49:09;98899.16;;;1.11;100.00
36600;BME280;35385;55.668;37.508;2023-02-04T03:50:10;98918.91;;;1.02;100.00
36600;BME280;35385;55.668;37.508;2023-02-04T03:51:12;98910.78;;;0.91;100.00
36600;BME280;35385;55.668;37.508;2023-02-04T03:52:13;98911.53;;;0.93;100.00
36600;BME280;35385;55.668;37.508;2023-02-04T03:53:13;98919.50;;;1.08;100.00
36600;BME280;35385;55.668;37.508;2023-02-04T03:54:14;98849.38;;;0.77;100.00
36600;BME280;35385;55.668;37.508;2023-02-04T03:55:14;98909.31;;;1.17;100.00
36600;BME280;35385;55.668;37.508;2023-02-04T03:56:15;98907.88;;;1.27;100.00
36600;BME280;35385;55.668;37.508;2023-02-04T03:57:15;98896.00;;;1.20;100.00
36600;BME280;35385;55.668;37.508;2023-02-04T03:58:16;98912.47;;;1.24;100.00
36600;BME280;35385;55.668;37.508;2023-02-04T03:59:17;98871.94;;;0.96;100.00
36600;BME280;35385;55.668;37.508;2023-02-04T04:00:17;98867.25;;;1.01;100.00
36600;BME280;35385;55.668;37.508;2023-02-04T04:01:18;98901.19;;;1.22;100.00
36600;BME280;35385;55.668;37.508;2023-02-04T04:02:19;98915.69;;;1.29;100.00
36600;BME280;35385;55.668;37.508;2023-02-04T04:03:19;98914.56;;;1.33;100.00
36600;BME280;35385;55.668;37.508;2023-02-04T04:04:20;98879.38;;;1.20;100.00
36600;BME280;35385;55.668;37.508;2023-02-04T04:05:20;98911.59;;;1.39;100.00
36600;BME280;35385;55.668;37.508;2023-02-04T04:06:21;98866.28;;;1.18;100.00
36600;BME280;35385;55.668;37.508;2023-02-04T04:07:21;98894.09;;;1.38;100.00
36600;BME280;35385;55.668;37.508;2023-02-04T04:08:22;98914.16;;;1.40;100.00
36600;BME280;35385;55.668;37.508;2023-02-04T04:09:22;98919.25;;;1.28;100.00
36600;BME280;35385;55.668;37.508;2023-02-04T04:10:23;98921.44;;;1.20;100.00
36600;BME280;35385;55.668;37.508;2023-02-04T04:11:23;98913.50;;;1.05;100.00
36600;BME280;35385;55.668;37.508;2023-02-04T04:12:24;98919.09;;;1.15;100.00
36600;BME280;35385;55.668;37.508;2023-02-04T04:13:25;98918.06;;;1.18;100.00
36600;BME280;35385;55.668;37.508;2023-02-04T04:14:25;98923.75;;;1.26;100.00
36600;BME280;35385;55.668;37.508;2023-02-04T04:15:26;98924.53;;;1.28;100.00
36600;BME280;35385;55.668;37.508;2023-02-04T04:16:26;98848.59;;;0.90;100.00
36600;BME280;35385;55.668;37.508;2023-02-04T04:17:27;98925.78;;;1.36;100.00
36600;BME280;35385;55.668;37.508;2023-02-04T04:18:28;98919.41;;;1.40;100.00
36600;BME280;35385;55.668;37.508;2023-02-04T04:19:28;98921.97;;;1.42;100.00
36600;BME280;35385;55.668;37.508;2023-02-04T04:20:31;98872.56;;;1.16;100.00
36600;BME280;35385;55.668;37.508;2023-02-04T04:21:31;98933.03;;;1.47;100.00
36600;BME280;35385;55.668;37.508;2023-02-04T04:22:32;98920.81;;;1.46;100.00
36600;BME280;35385;55.668;37.508;2023-02-04T04:23:33;98914.63;;;1.47;100.00
36600;BME280;35385;55.668;37.508;2023-02-04T04:24:34;98932.34;;;1.59;100.00
36600;BME280;35385;55.668;37.508;2023-02-04T04:25:34;98932.63;;;1.55;100.00
36600;BME280;35385;55.668;37.508;2023-02-04T04:26:35;98926.84;;;1.48;100.00
36600;BME280;35385;55.668;37.508;2023-02-04T04:27:36;98905.50;;;1.23;100.00
36600;BME280;35385;55.668;37.508;2023-02-04T04:28:36;98941.16;;;1.44;100.00
36600;BME280;35385;55.668;37.508;2023-02-04T04:29:37;98934.19;;;1.43;100.00
36600;BME280;35385;55.668;37.508;2023-02-04T04:30:37;98906.69;;;1.17;100.00
36600;BME280;35385;55.668;37.508;2023-02-04T04:31:38;98930.00;;;1.39;100.00
36600;BME280;35385;55.668;37.508;2023-02-04T04:32:38;98936.97;;;1.40;100.00
36600;BME280;35385;55.668;37.508;2023-02-04T04:33:39;98937.38;;;1.48;100.00
36600;BME280;35385;55.668;37.508;2023-02-04T04:34:40;98948.50;;;1.53;100.00
36600;BME280;35385;55.668;37.508;2023-02-04T04:35:40;98939.50;;;1.57;100.00
36600;BME280;35385;55.668;37.508;2023-02-04T04:36:41;98940.25;;;1.59;100.00
36600;BME280;35385;55.668;37.508;2023-02-04T04:37:41;98940.91;;;1.63;100.00
36600;BME280;35385;55.668;37.508;2023-02-04T04:38:42;98935.81;;;1.60;100.00
36600;BME280;35385;55.668;37.508;2023-02-04T04:39:42;98898.44;;;1.39;100.00
36600;BME280;35385;55.668;37.508;2023-02-04T04:40:43;98939.66;;;1.70;100.00
36600;BME280;35385;55.668;37.508;2023-02-04T04:41:46;98949.53;;;1.81;100.00
36600;BME280;35385;55.668;37.508;2023-02-04T04:42:46;98940.19;;;1.75;100.00
36600;BME280;35385;55.668;37.508;2023-02-04T04:43:47;98937.34;;;1.64;100.00
36600;BME280;35385;55.668;37.508;2023-02-04T04:44:47;98944.56;;;1.60;100.00
36600;BME280;35385;55.668;37.508;2023-02-04T04:45:48;98944.41;;;1.63;100.00
36600;BME280;35385;55.668;37.508;2023-02-04T04:46:48;98943.47;;;1.64;100.00
36600;BME280;35385;55.668;37.508;2023-02-04T04:47:49;98944.66;;;1.59;100.00
36600;BME280;35385;55.668;37.508;2023-02-04T04:48:49;98936.63;;;1.46;100.00
36600;BME280;35385;55.668;37.508;2023-02-04T04:49:50;98915.50;;;1.32;100.00
36600;BME280;35385;55.668;37.508;2023-02-04T04:50:50;98949.91;;;1.59;100.00
36600;BME280;35385;55.668;37.508;2023-02-04T04:51:51;98925.53;;;1.41;100.00
36600;BME280;35385;55.668;37.508;2023-02-04T04:52:51;98934.97;;;1.59;100.00
36600;BME280;35385;55.668;37.508;2023-02-04T04:53:52;98955.34;;;1.71;100.00
36600;BME280;35385;55.668;37.508;2023-02-04T04:54:52;98950.25;;;1.68;100.00
36600;BME280;35385;55.668;37.508;2023-02-04T04:55:53;98959.25;;;1.64;100.00
36600;BME280;35385;55.668;37.508;2023-02-04T04:56:54;98957.56;;;1.63;100.00
36600;BME280;35385;55.668;37.508;2023-02-04T04:57:54;98955.94;;;1.61;100.00
36600;BME280;35385;55.668;37.508;2023-02-04T04:58:55;98947.75;;;1.51;100.00
36600;BME280;35385;55.668;37.508;2023-02-04T04:59:55;98956.72;;;1.47;100.00
36600;BME280;35385;55.668;37.508;2023-02-04T05:00:56;98909.59;;;1.13;100.00
36600;BME280;35385;55.668;37.508;2023-02-04T05:01:59;98953.09;;;1.50;100.00
36600;BME280;35385;55.668;37.508;2023-02-04T05:02:59;98928.66;;;1.32;100.00
36600;BME280;35385;55.668;37.508;2023-02-04T05:04:00;98966.41;;;1.47;100.00
36600;BME280;35385;55.668;37.508;2023-02-04T05:05:03;98956.03;;;1.59;100.00
36600;BME280;35385;55.668;37.508;2023-02-04T05:06:03;98953.00;;;1.51;100.00
36600;BME280;35385;55.668;37.508;2023-02-04T05:07:04;98964.91;;;1.58;100.00
36600;BME280;35385;55.668;37.508;2023-02-04T05:08:07;98966.31;;;1.48;100.00
36600;BME280;35385;55.668;37.508;2023-02-04T05:09:12;98972.13;;;1.39;100.00
36600;BME280;35385;55.668;37.508;2023-02-04T05:10:16;98965.50;;;1.32;100.00
36600;BME280;35385;55.668;37.508;2023-02-04T05:11:17;98950.63;;;1.31;100.00
36600;BME280;35385;55.668;37.508;2023-02-04T05:12:17;98972.88;;;1.41;100.00
36600;BME280;35385;55.668;37.508;2023-02-04T05:13:18;98981.72;;;1.40;100.00
36600;BME280;35385;55.668;37.508;2023-02-04T05:14:19;98959.28;;;1.33;100.00
36600;BME280;35385;55.668;37.508;2023-02-04T05:15:19;98975.59;;;1.39;100.00
36600;BME280;35385;55.668;37.508;2023-02-04T05:16:20;98986.06;;;1.41;100.00
36600;BME280;35385;55.668;37.508;2023-02-04T05:17:20;98976.78;;;1.34;100.00
36600;BME280;35385;55.668;37.508;2023-02-04T05:18:21;98932.66;;;1.08;100.00
36600;BME280;35385;55.668;37.508;2023-02-04T05:19:21;98982.41;;;1.28;100.00
36600;BME280;35385;55.668;37.508;2023-02-04T05:20:22;98978.84;;;1.29;100.00